sensor_id;sensor_type;location;lat;lon;timestamp;temperature;humidity
5520;DHT22;2782;52.362;10.012;2024-03-02T00:00:58;18.40;64.70
5520;DHT22;2782;52.362;10.012;2024-03-02T00:02:00;18.40;64.70
5520;DHT22;2782;52.362;10.012;2024-03-02T00:03:01;18.40;64.70
5520;DHT22;2782;52.362;10.012;2024-03-02T00:04:03;18.40;64.70
5520;DHT22;2782;52.362;10.012;2024-03-02T00:05:05;18.40;64.70
5520;DHT22;2782;52.362;10.012;2024-03-02T00:06:08;18.40;64.80
5520;DHT22;2782;52.362;10.012;2024-03-02T00:07:09;18.40;64.70
5520;DHT22;2782;52.362;10.012;2024-03-02T00:08:10;18.30;64.70
5520;DHT22;2782;52.362;10.012;2024-03-02T00:09:14;18.40;64.80
5520;DHT22;2782;52.362;10.012;2024-03-02T00:10:19;18.40;64.80
5520;DHT22;2782;52.362;10.012;2024-03-02T00:11:20;18.40;64.80
5520;DHT22;2782;52.362;10.012;2024-03-02T00:12:21;18.30;64.70
5520;DHT22;2782;52.362;10.012;2024-03-02T00:13:22;18.40;64.80
5520;DHT22;2782;52.362;10.012;2024-03-02T00:14:24;18.40;64.90
5520;DHT22;2782;52.362;10.012;2024-03-02T00:15:40;18.40;64.80
5520;DHT22;2782;52.362;10.012;2024-03-02T00:16:42;18.40;64.90
5520;DHT22;2782;52.362;10.012;2024-03-02T00:17:43;18.40;64.80
5520;DHT22;2782;52.362;10.012;2024-03-02T00:18:46;18.40;64.80
5520;DHT22;2782;52.362;10.012;2024-03-02T00:19:47;18.40;64.90
5520;DHT22;2782;52.362;10.012;2024-03-02T00:20:48;18.40;64.90
5520;DHT22;2782;52.362;10.012;2024-03-02T00:21:51;18.40;65.00
5520;DHT22;2782;52.362;10.012;2024-03-02T00:22:53;18.40;64.90
5520;DHT22;2782;52.362;10.012;2024-03-02T00:23:58;18.30;64.80
5520;DHT22;2782;52.362;10.012;2024-03-02T00:24:59;18.40;64.90
5520;DHT22;2782;52.362;10.012;2024-03-02T00:26:01;18.40;64.90
5520;DHT22;2782;52.362;10.012;2024-03-02T00:27:04;18.30;64.80
5520;DHT22;2782;52.362;10.012;2024-03-02T00:28:13;18.30;64.80
5520;DHT22;2782;52.362;10.012;2024-03-02T00:29:17;18.30;64.80
5520;DHT22;2782;52.362;10.012;2024-03-02T00:30:41;18.30;64.90
5520;DHT22;2782;52.362;10.012;2024-03-02T00:31:45;18.30;64.80
5520;DHT22;2782;52.362;10.012;2024-03-02T00:32:48;18.30;64.80
5520;DHT22;2782;52.362;10.012;2024-03-02T00:33:53;18.30;64.90
5520;DHT22;2782;52.362;10.012;2024-03-02T00:34:54;18.30;64.80
5520;DHT22;2782;52.362;10.012;2024-03-02T00:35:55;18.30;64.80
5520;DHT22;2782;52.362;10.012;2024-03-02T00:36:58;18.30;64.80
5520;DHT22;2782;52.362;10.012;2024-03-02T00:38:04;18.30;64.80
5520;DHT22;2782;52.362;10.012;2024-03-02T00:39:05;18.30;64.80
5520;DHT22;2782;52.362;10.012;2024-03-02T00:40:09;18.30;64.80
5520;DHT22;2782;52.362;10.012;2024-03-02T00:41:17;18.30;64.80
5520;DHT22;2782;52.362;10.012;2024-03-02T00:42:20;18.30;64.80
5520;DHT22;2782;52.362;10.012;2024-03-02T00:43:42;18.30;64.80
5520;DHT22;2782;52.362;10.012;2024-03-02T00:44:43;18.30;64.80
5520;DHT22;2782;52.362;10.012;2024-03-02T00:45:44;18.30;64.80
5520;DHT22;2782;52.362;10.012;2024-03-02T00:46:45;18.30;64.80
5520;DHT22;2782;52.362;10.012;2024-03-02T00:47:47;18.30;64.80
5520;DHT22;2782;52.362;10.012;2024-03-02T00:48:55;18.30;64.80
5520;DHT22;2782;52.362;10.012;2024-03-02T00:49:57;18.30;64.90
5520;DHT22;2782;52.362;10.012;2024-03-02T00:50:59;18.30;64.80
5520;DHT22;2782;52.362;10.012;2024-03-02T00:52:01;18.20;64.70
5520;DHT22;2782;52.362;10.012;2024-03-02T00:53:03;18.20;64.70
5520;DHT22;2782;52.362;10.012;2024-03-02T00:54:08;18.30;64.80
5520;DHT22;2782;52.362;10.012;2024-03-02T00:55:10;18.30;64.80
5520;DHT22;2782;52.362;10.012;2024-03-02T00:56:12;18.20;64.80
5520;DHT22;2782;52.362;10.012;2024-03-02T00:57:13;18.20;64.80
5520;DHT22;2782;52.362;10.012;2024-03-02T00:58:15;18.20;64.80
5520;DHT22;2782;52.362;10.012;2024-03-02T00:59:16;18.20;64.70
5520;DHT22;2782;52.362;10.012;2024-03-02T01:00:18;18.20;64.70
5520;DHT22;2782;52.362;10.012;2024-03-02T01:01:19;18.20;64.80
5520;DHT22;2782;52.362;10.012;2024-03-02T01:02:21;18.20;64.80
5520;DHT22;2782;52.362;10.012;2024-03-02T01:03:21;18.20;64.80
5520;DHT22;2782;52.362;10.012;2024-03-02T01:04:22;18.20;64.80
5520;DHT22;2782;52.362;10.012;2024-03-02T01:05:24;18.20;64.90
5520;DHT22;2782;52.362;10.012;2024-03-02T01:06:24;18.20;65.00
5520;DHT22;2782;52.362;10.012;2024-03-02T01:07:27;18.20;65.20
5520;DHT22;2782;52.362;10.012;2024-03-02T01:08:28;18.20;66.30
5520;DHT22;2782;52.362;10.012;2024-03-02T01:09:28;18.20;68.10
5520;DHT22;2782;52.362;10.012;2024-03-02T01:10:30;18.20;69.40
5520;DHT22;2782;52.362;10.012;2024-03-02T01:11:30;18.20;70.80
5520;DHT22;2782;52.362;10.012;2024-03-02T01:12:32;18.30;72.50
5520;DHT22;2782;52.362;10.012;2024-03-02T01:13:33;18.30;73.40
5520;DHT22;2782;52.362;10.012;2024-03-02T01:14:34;18.20;73.70
5520;DHT22;2782;52.362;10.012;2024-03-02T01:15:35;18.30;73.90
5520;DHT22;2782;52.362;10.012;2024-03-02T01:16:36;18.30;74.10
5520;DHT22;2782;52.362;10.012;2024-03-02T01:17:38;18.30;74.20
5520;DHT22;2782;52.362;10.012;2024-03-02T01:18:38;18.30;74.40
5520;DHT22;2782;52.362;10.012;2024-03-02T01:19:39;18.30;74.50
5520;DHT22;2782;52.362;10.012;2024-03-02T01:20:42;18.30;75.30
5520;DHT22;2782;52.362;10.012;2024-03-02T01:21:43;18.30;74.60
5520;DHT22;2782;52.362;10.012;2024-03-02T01:22:46;18.30;74.60
5520;DHT22;2782;52.362;10.012;2024-03-02T01:23:47;18.30;74.60
5520;DHT22;2782;52.362;10.012;2024-03-02T01:24:48;18.30;75.00
5520;DHT22;2782;52.362;10.012;2024-03-02T01:25:50;18.30;75.20
5520;DHT22;2782;52.362;10.012;2024-03-02T01:26:51;18.40;75.30
5520;DHT22;2782;52.362;10.012;2024-03-02T01:27:52;18.30;74.90
5520;DHT22;2782;52.362;10.012;2024-03-02T01:28:53;18.40;75.20
5520;DHT22;2782;52.362;10.012;2024-03-02T01:29:54;18.40;75.00
5520;DHT22;2782;52.362;10.012;2024-03-02T01:30:55;18.40;75.10
5520;DHT22;2782;52.362;10.012;2024-03-02T01:31:56;18.30;75.10
5520;DHT22;2782;52.362;10.012;2024-03-02T01:32:57;18.40;75.30
5520;DHT22;2782;52.362;10.012;2024-03-02T01:34:00;18.40;75.30
5520;DHT22;2782;52.362;10.012;2024-03-02T01:35:02;18.40;75.30
5520;DHT22;2782;52.362;10.012;2024-03-02T01:36:03;18.40;75.40
5520;DHT22;2782;52.362;10.012;2024-03-02T01:37:05;18.40;75.30
5520;DHT22;2782;52.362;10.012;2024-03-02T01:38:08;18.40;75.30
5520;DHT22;2782;52.362;10.012;2024-03-02T01:39:09;18.40;75.40
5520;DHT22;2782;52.362;10.012;2024-03-02T01:40:11;18.40;75.30
5520;DHT22;2782;52.362;10.012;2024-03-02T01:41:12;18.40;75.30
5520;DHT22;2782;52.362;10.012;2024-03-02T01:42:13;18.40;75.20
5520;DHT22;2782;52.362;10.012;2024-03-02T01:43:14;18.40;75.00
5520;DHT22;2782;52.362;10.012;2024-03-02T01:44:16;18.40;75.00
5520;DHT22;2782;52.362;10.012;2024-03-02T01:45:17;18.40;75.00
5520;DHT22;2782;52.362;10.012;2024-03-02T01:46:19;18.40;75.00
5520;DHT22;2782;52.362;10.012;2024-03-02T01:47:20;18.40;75.00
5520;DHT22;2782;52.362;10.012;2024-03-02T01:48:21;18.40;74.70
5520;DHT22;2782;52.362;10.012;2024-03-02T01:49:22;18.40;74.60
5520;DHT22;2782;52.362;10.012;2024-03-02T01:50:28;18.40;74.60
5520;DHT22;2782;52.362;10.012;2024-03-02T01:51:29;18.40;74.60
5520;DHT22;2782;52.362;10.012;2024-03-02T01:52:30;18.40;74.60
5520;DHT22;2782;52.362;10.012;2024-03-02T01:53:33;18.40;74.40
5520;DHT22;2782;52.362;10.012;2024-03-02T01:54:34;18.40;74.50
5520;DHT22;2782;52.362;10.012;2024-03-02T01:55:35;18.40;74.40
5520;DHT22;2782;52.362;10.012;2024-03-02T01:56:36;18.40;74.30
5520;DHT22;2782;52.362;10.012;2024-03-02T01:57:37;18.40;74.30
5520;DHT22;2782;52.362;10.012;2024-03-02T01:58:38;18.40;74.20
5520;DHT22;2782;52.362;10.012;2024-03-02T01:59:39;18.40;74.20
5520;DHT22;2782;52.362;10.012;2024-03-02T02:00:40;18.40;74.00
5520;DHT22;2782;52.362;10.012;2024-03-02T02:01:41;18.40;73.80
5520;DHT22;2782;52.362;10.012;2024-03-02T02:02:43;18.40;73.80
5520;DHT22;2782;52.362;10.012;2024-03-02T02:03:44;18.40;73.80
5520;DHT22;2782;52.362;10.012;2024-03-02T02:04:45;18.40;73.80
5520;DHT22;2782;52.362;10.012;2024-03-02T02:05:46;18.40;73.70
5520;DHT22;2782;52.362;10.012;2024-03-02T02:06:48;18.40;73.70
5520;DHT22;2782;52.362;10.012;2024-03-02T02:07:49;18.40;73.40
5520;DHT22;2782;52.362;10.012;2024-03-02T02:08:52;18.40;73.60
5520;DHT22;2782;52.362;10.012;2024-03-02T02:09:52;18.40;73.50
5520;DHT22;2782;52.362;10.012;2024-03-02T02:10:54;18.40;73.40
5520;DHT22;2782;52.362;10.012;2024-03-02T02:11:55;18.40;73.40
5520;DHT22;2782;52.362;10.012;2024-03-02T02:12:56;18.40;73.40
5520;DHT22;2782;52.362;10.012;2024-03-02T02:13:57;18.40;73.20
5520;DHT22;2782;52.362;10.012;2024-03-02T02:14:58;18.40;73.20
5520;DHT22;2782;52.362;10.012;2024-03-02T02:16:05;18.40;73.10
5520;DHT22;2782;52.362;10.012;2024-03-02T02:17:05;18.40;73.20
5520;DHT22;2782;52.362;10.012;2024-03-02T02:18:07;18.40;73.20
5520;DHT22;2782;52.362;10.012;2024-03-02T02:19:08;18.40;73.00
5520;DHT22;2782;52.362;10.012;2024-03-02T02:20:10;18.40;73.00
5520;DHT22;2782;52.362;10.012;2024-03-02T02:21:11;18.40;73.00
5520;DHT22;2782;52.362;10.012;2024-03-02T02:22:14;18.40;72.90
5520;DHT22;2782;52.362;10.012;2024-03-02T02:23:14;18.40;72.70
5520;DHT22;2782;52.362;10.012;2024-03-02T02:24:16;18.40;72.70
5520;DHT22;2782;52.362;10.012;2024-03-02T02:25:17;18.40;72.70
5520;DHT22;2782;52.362;10.012;2024-03-02T02:26:18;18.40;72.60
5520;DHT22;2782;52.362;10.012;2024-03-02T02:27:19;18.40;72.60
5520;DHT22;2782;52.362;10.012;2024-03-02T02:28:21;18.40;72.50
5520;DHT22;2782;52.362;10.012;2024-03-02T02:29:21;18.40;72.50
5520;DHT22;2782;52.362;10.012;2024-03-02T02:30:24;18.40;72.40
5520;DHT22;2782;52.362;10.012;2024-03-02T02:31:25;18.40;72.30
5520;DHT22;2782;52.362;10.012;2024-03-02T02:32:27;18.40;72.20
5520;DHT22;2782;52.362;10.012;2024-03-02T02:33:27;18.40;72.20
5520;DHT22;2782;52.362;10.012;2024-03-02T02:34:29;18.40;72.10
5520;DHT22;2782;52.362;10.012;2024-03-02T02:35:29;18.40;72.10
5520;DHT22;2782;52.362;10.012;2024-03-02T02:36:30;18.40;72.00
5520;DHT22;2782;52.362;10.012;2024-03-02T02:37:33;18.40;72.00
5520;DHT22;2782;52.362;10.012;2024-03-02T02:38:38;18.40;72.00
5520;DHT22;2782;52.362;10.012;2024-03-02T02:39:40;18.40;72.00
5520;DHT22;2782;52.362;10.012;2024-03-02T02:40:40;18.40;71.90
5520;DHT22;2782;52.362;10.012;2024-03-02T02:41:42;18.30;71.60
5520;DHT22;2782;52.362;10.012;2024-03-02T02:42:43;18.30;71.50
5520;DHT22;2782;52.362;10.012;2024-03-02T02:43:43;18.30;71.50
5520;DHT22;2782;52.362;10.012;2024-03-02T02:44:45;18.30;71.40
5520;DHT22;2782;52.362;10.012;2024-03-02T02:45:46;18.30;71.30
5520;DHT22;2782;52.362;10.012;2024-03-02T02:46:47;18.30;71.30
5520;DHT22;2782;52.362;10.012;2024-03-02T02:47:48;18.30;71.30
5520;DHT22;2782;52.362;10.012;2024-03-02T02:48:50;18.30;71.20
5520;DHT22;2782;52.362;10.012;2024-03-02T02:49:51;18.30;71.20
5520;DHT22;2782;52.362;10.012;2024-03-02T02:50:52;18.30;71.10
5520;DHT22;2782;52.362;10.012;2024-03-02T02:51:54;18.30;71.10
5520;DHT22;2782;52.362;10.012;2024-03-02T02:52:55;18.30;71.00
5520;DHT22;2782;52.362;10.012;2024-03-02T02:53:57;18.30;71.60
5520;DHT22;2782;52.362;10.012;2024-03-02T02:54:58;18.30;71.00
5520;DHT22;2782;52.362;10.012;2024-03-02T02:55:59;18.30;70.90
5520;DHT22;2782;52.362;10.012;2024-03-02T02:57:00;18.30;70.90
5520;DHT22;2782;52.362;10.012;2024-03-02T02:58:01;18.30;70.90
5520;DHT22;2782;52.362;10.012;2024-03-02T02:59:02;18.30;70.90
5520;DHT22;2782;52.362;10.012;2024-03-02T03:00:06;18.30;71.00
5520;DHT22;2782;52.362;10.012;2024-03-02T03:01:10;18.30;71.00
5520;DHT22;2782;52.362;10.012;2024-03-02T03:02:12;18.30;71.00
5520;DHT22;2782;52.362;10.012;2024-03-02T03:05:28;18.30;70.90
5520;DHT22;2782;52.362;10.012;2024-03-02T03:06:30;18.30;70.90
5520;DHT22;2782;52.362;10.012;2024-03-02T03:07:30;18.20;70.80
5520;DHT22;2782;52.362;10.012;2024-03-02T03:08:33;18.20;71.60
5520;DHT22;2782;52.362;10.012;2024-03-02T03:09:37;18.30;71.00
5520;DHT22;2782;52.362;10.012;2024-03-02T03:10:39;18.30;70.90
5520;DHT22;2782;52.362;10.012;2024-03-02T03:11:40;18.20;70.80
5520;DHT22;2782;52.362;10.012;2024-03-02T03:12:41;18.30;70.90
5520;DHT22;2782;52.362;10.012;2024-03-02T03:13:43;18.20;70.80
5520;DHT22;2782;52.362;10.012;2024-03-02T03:14:43;18.30;70.80
5520;DHT22;2782;52.362;10.012;2024-03-02T03:15:47;18.30;70.80
5520;DHT22;2782;52.362;10.012;2024-03-02T03:16:48;18.30;70.80
5520;DHT22;2782;52.362;10.012;2024-03-02T03:17:50;18.30;70.70
5520;DHT22;2782;52.362;10.012;2024-03-02T03:18:51;18.30;70.70
5520;DHT22;2782;52.362;10.012;2024-03-02T03:19:53;18.30;70.60
5520;DHT22;2782;52.362;10.012;2024-03-02T03:20:55;18.30;70.60
5520;DHT22;2782;52.362;10.012;2024-03-02T03:21:56;18.30;70.60
5520;DHT22;2782;52.362;10.012;2024-03-02T03:22:57;18.30;70.50
5520;DHT22;2782;52.362;10.012;2024-03-02T03:24:00;18.30;70.50
5520;DHT22;2782;52.362;10.012;2024-03-02T03:25:01;18.30;70.40
5520;DHT22;2782;52.362;10.012;2024-03-02T03:26:03;18.30;70.40
5520;DHT22;2782;52.362;10.012;2024-03-02T03:27:05;18.30;70.30
5520;DHT22;2782;52.362;10.012;2024-03-02T03:28:06;18.30;70.30
5520;DHT22;2782;52.362;10.012;2024-03-02T03:29:07;18.30;70.30
5520;DHT22;2782;52.362;10.012;2024-03-02T03:30:08;18.30;70.20
5520;DHT22;2782;52.362;10.012;2024-03-02T03:31:10;18.30;70.20
5520;DHT22;2782;52.362;10.012;2024-03-02T03:32:11;18.30;70.20
5520;DHT22;2782;52.362;10.012;2024-03-02T03:33:11;18.30;70.10
5520;DHT22;2782;52.362;10.012;2024-03-02T03:34:14;18.30;70.10
5520;DHT22;2782;52.362;10.012;2024-03-02T03:35:16;18.30;70.10
5520;DHT22;2782;52.362;10.012;2024-03-02T03:36:19;18.30;70.00
5520;DHT22;2782;52.362;10.012;2024-03-02T03:37:19;18.30;70.00
5520;DHT22;2782;52.362;10.012;2024-03-02T03:38:20;18.30;70.00
5520;DHT22;2782;52.362;10.012;2024-03-02T03:39:23;18.30;70.00
5520;DHT22;2782;52.362;10.012;2024-03-02T03:40:23;18.30;70.00
5520;DHT22;2782;52.362;10.012;2024-03-02T03:41:25;18.30;69.90
5520;DHT22;2782;52.362;10.012;2024-03-02T03:42:26;18.30;69.90
5520;DHT22;2782;52.362;10.012;2024-03-02T03:43:27;18.30;69.90
5520;DHT22;2782;52.362;10.012;2024-03-02T03:44:28;18.30;69.80
5520;DHT22;2782;52.362;10.012;2024-03-02T03:45:29;18.30;69.80
5520;DHT22;2782;52.362;10.012;2024-03-02T03:46:30;18.30;69.80
5520;DHT22;2782;52.362;10.012;2024-03-02T03:47:32;18.30;69.80
5520;DHT22;2782;52.362;10.012;2024-03-02T03:48:33;18.30;69.70
5520;DHT22;2782;52.362;10.012;2024-03-02T03:49:34;18.30;69.80
5520;DHT22;2782;52.362;10.012;2024-03-02T03:50:35;18.30;69.70
5520;DHT22;2782;52.362;10.012;2024-03-02T03:51:37;18.30;69.70
5520;DHT22;2782;52.362;10.012;2024-03-02T03:52:38;18.30;69.70
5520;DHT22;2782;52.362;10.012;2024-03-02T03:53:39;18.30;69.70
5520;DHT22;2782;52.362;10.012;2024-03-02T03:54:41;18.30;69.70
5520;DHT22;2782;52.362;10.012;2024-03-02T03:55:45;18.30;69.60
5520;DHT22;2782;52.362;10.012;2024-03-02T03:56:47;18.30;69.60
5520;DHT22;2782;52.362;10.012;2024-03-02T03:57:48;18.30;69.60
5520;DHT22;2782;52.362;10.012;2024-03-02T03:58:49;18.30;69.60
5520;DHT22;2782;52.362;10.012;2024-03-02T03:59:51;18.30;69.60
5520;DHT22;2782;52.362;10.012;2024-03-02T04:00:51;18.30;69.50
5520;DHT22;2782;52.362;10.012;2024-03-02T04:01:53;18.30;69.50
5520;DHT22;2782;52.362;10.012;2024-03-02T04:02:53;18.30;69.40
5520;DHT22;2782;52.362;10.012;2024-03-02T04:03:55;18.30;69.40
5520;DHT22;2782;52.362;10.012;2024-03-02T04:04:56;18.30;69.30
5520;DHT22;2782;52.362;10.012;2024-03-02T04:05:56;18.30;69.30
5520;DHT22;2782;52.362;10.012;2024-03-02T04:06:58;18.30;69.20
5520;DHT22;2782;52.362;10.012;2024-03-02T04:07:59;18.30;69.20
5520;DHT22;2782;52.362;10.012;2024-03-02T04:09:01;18.30;69.20
5520;DHT22;2782;52.362;10.012;2024-03-02T04:10:04;18.30;69.20
5520;DHT22;2782;52.362;10.012;2024-03-02T04:11:04;18.30;69.10
5520;DHT22;2782;52.362;10.012;2024-03-02T04:12:08;18.30;69.10
5520;DHT22;2782;52.362;10.012;2024-03-02T04:13:08;18.30;69.10
5520;DHT22;2782;52.362;10.012;2024-03-02T04:14:10;18.30;69.10
5520;DHT22;2782;52.362;10.012;2024-03-02T04:15:11;18.30;69.00
5520;DHT22;2782;52.362;10.012;2024-03-02T04:16:12;18.30;69.00
5520;DHT22;2782;52.362;10.012;2024-03-02T04:17:13;18.30;69.00
5520;DHT22;2782;52.362;10.012;2024-03-02T04:18:15;18.30;69.10
5520;DHT22;2782;52.362;10.012;2024-03-02T04:19:15;18.20;68.90
5520;DHT22;2782;52.362;10.012;2024-03-02T04:20:17;18.30;68.90
5520;DHT22;2782;52.362;10.012;2024-03-02T04:21:18;18.30;69.00
5520;DHT22;2782;52.362;10.012;2024-03-02T04:22:19;18.20;68.80
5520;DHT22;2782;52.362;10.012;2024-03-02T04:23:20;18.20;68.80
5520;DHT22;2782;52.362;10.012;2024-03-02T04:24:21;18.20;68.80
5520;DHT22;2782;52.362;10.012;2024-03-02T04:25:23;18.20;68.80
5520;DHT22;2782;52.362;10.012;2024-03-02T04:26:25;18.20;68.80
5520;DHT22;2782;52.362;10.012;2024-03-02T04:27:26;18.20;68.80
5520;DHT22;2782;52.362;10.012;2024-03-02T04:28:26;18.20;68.80
5520;DHT22;2782;52.362;10.012;2024-03-02T04:29:28;18.20;68.80
5520;DHT22;2782;52.362;10.012;2024-03-02T04:30:29;18.20;68.70
5520;DHT22;2782;52.362;10.012;2024-03-02T04:31:30;18.20;68.80
5520;DHT22;2782;52.362;10.012;2024-03-02T04:32:31;18.20;68.80
5520;DHT22;2782;52.362;10.012;2024-03-02T04:33:32;18.20;68.80
5520;DHT22;2782;52.362;10.012;2024-03-02T04:34:33;18.20;68.80
5520;DHT22;2782;52.362;10.012;2024-03-02T04:35:35;18.20;68.80
5520;DHT22;2782;52.362;10.012;2024-03-02T04:36:35;18.20;68.70
5520;DHT22;2782;52.362;10.012;2024-03-02T04:37:38;18.20;68.70
5520;DHT22;2782;52.362;10.012;2024-03-02T04:38:39;18.20;68.80
5520;DHT22;2782;52.362;10.012;2024-03-02T04:39:40;18.20;68.80
5520;DHT22;2782;52.362;10.012;2024-03-02T04:40:42;18.20;68.80
5520;DHT22;2782;52.362;10.012;2024-03-02T04:41:44;18.20;68.80
5520;DHT22;2782;52.362;10.012;2024-03-02T04:42:44;18.20;68.80
5520;DHT22;2782;52.362;10.012;2024-03-02T04:43:46;18.20;68.80
5520;DHT22;2782;52.362;10.012;2024-03-02T04:44:46;18.20;68.80
5520;DHT22;2782;52.362;10.012;2024-03-02T04:45:47;18.20;68.80
5520;DHT22;2782;52.362;10.012;2024-03-02T04:46:48;18.20;68.80
5520;DHT22;2782;52.362;10.012;2024-03-02T04:47:49;18.20;68.80
5520;DHT22;2782;52.362;10.012;2024-03-02T04:48:51;18.20;68.80
5520;DHT22;2782;52.362;10.012;2024-03-02T04:49:56;18.20;68.80
5520;DHT22;2782;52.362;10.012;2024-03-02T04:50:57;18.20;68.80
5520;DHT22;2782;52.362;10.012;2024-03-02T04:51:58;18.20;68.80
5520;DHT22;2782;52.362;10.012;2024-03-02T04:52:59;18.20;68.90
5520;DHT22;2782;52.362;10.012;2024-03-02T04:54:00;18.20;68.80
5520;DHT22;2782;52.362;10.012;2024-03-02T04:55:02;18.20;68.80
5520;DHT22;2782;52.362;10.012;2024-03-02T04:56:37;18.20;68.80
5520;DHT22;2782;52.362;10.012;2024-03-02T04:57:44;18.20;68.80
5520;DHT22;2782;52.362;10.012;2024-03-02T04:58:46;18.20;68.80
5520;DHT22;2782;52.362;10.012;2024-03-02T04:59:47;18.20;68.80
5520;DHT22;2782;52.362;10.012;2024-03-02T05:00:48;18.20;68.80
5520;DHT22;2782;52.362;10.012;2024-03-02T05:01:49;18.20;68.80
5520;DHT22;2782;52.362;10.012;2024-03-02T05:02:51;18.20;68.80
5520;DHT22;2782;52.362;10.012;2024-03-02T05:03:51;18.20;68.80
5520;DHT22;2782;52.362;10.012;2024-03-02T05:04:52;18.20;68.80
5520;DHT22;2782;52.362;10.012;2024-03-02T05:05:53;18.20;68.80
5520;DHT22;2782;52.362;10.012;2024-03-02T05:06:54;18.20;68.70
5520;DHT22;2782;52.362;10.012;2024-03-02T05:07:58;18.20;68.70
5520;DHT22;2782;52.362;10.012;2024-03-02T05:08:58;18.20;68.60
5520;DHT22;2782;52.362;10.012;2024-03-02T05:10:00;18.30;68.70
5520;DHT22;2782;52.362;10.012;2024-03-02T05:11:01;18.30;68.70
5520;DHT22;2782;52.362;10.012;2024-03-02T05:12:24;18.30;68.70
5520;DHT22;2782;52.362;10.012;2024-03-02T05:13:41;18.30;68.70
5520;DHT22;2782;52.362;10.012;2024-03-02T05:14:43;18.30;68.70
5520;DHT22;2782;52.362;10.012;2024-03-02T05:15:43;18.30;68.70
5520;DHT22;2782;52.362;10.012;2024-03-02T05:16:45;18.30;68.70
5520;DHT22;2782;52.362;10.012;2024-03-02T05:17:45;18.30;68.60
5520;DHT22;2782;52.362;10.012;2024-03-02T05:18:47;18.30;68.60
5520;DHT22;2782;52.362;10.012;2024-03-02T05:19:48;18.30;68.60
5520;DHT22;2782;52.362;10.012;2024-03-02T05:20:49;18.30;68.50
5520;DHT22;2782;52.362;10.012;2024-03-02T05:21:50;18.30;68.60
5520;DHT22;2782;52.362;10.012;2024-03-02T05:22:52;18.30;68.50
5520;DHT22;2782;52.362;10.012;2024-03-02T05:23:52;18.30;68.40
5520;DHT22;2782;52.362;10.012;2024-03-02T05:24:53;18.30;68.40
5520;DHT22;2782;52.362;10.012;2024-03-02T05:25:54;18.30;68.40
5520;DHT22;2782;52.362;10.012;2024-03-02T05:26:55;18.30;68.40
5520;DHT22;2782;52.362;10.012;2024-03-02T05:27:58;18.30;68.40
5520;DHT22;2782;52.362;10.012;2024-03-02T05:28:59;18.30;68.30
5520;DHT22;2782;52.362;10.012;2024-03-02T05:29:59;18.30;68.40
5520;DHT22;2782;52.362;10.012;2024-03-02T05:31:01;18.30;68.30
5520;DHT22;2782;52.362;10.012;2024-03-02T05:32:02;18.30;68.20
5520;DHT22;2782;52.362;10.012;2024-03-02T05:33:04;18.30;68.20
5520;DHT22;2782;52.362;10.012;2024-03-02T05:34:04;18.30;68.20
5520;DHT22;2782;52.362;10.012;2024-03-02T05:35:07;18.30;68.20
5520;DHT22;2782;52.362;10.012;2024-03-02T05:36:08;18.30;68.20
5520;DHT22;2782;52.362;10.012;2024-03-02T05:37:09;18.30;68.20
5520;DHT22;2782;52.362;10.012;2024-03-02T05:38:11;18.30;68.10
5520;DHT22;2782;52.362;10.012;2024-03-02T05:39:11;18.30;68.20
5520;DHT22;2782;52.362;10.012;2024-03-02T05:40:14;18.30;68.10
5520;DHT22;2782;52.362;10.012;2024-03-02T05:41:14;18.30;68.10
5520;DHT22;2782;52.362;10.012;2024-03-02T05:42:16;18.30;68.10
5520;DHT22;2782;52.362;10.012;2024-03-02T05:43:18;18.30;68.00
5520;DHT22;2782;52.362;10.012;2024-03-02T05:44:20;18.30;68.00
5520;DHT22;2782;52.362;10.012;2024-03-02T05:45:22;18.30;68.00
5520;DHT22;2782;52.362;10.012;2024-03-02T05:46:23;18.30;68.00
5520;DHT22;2782;52.362;10.012;2024-03-02T05:47:24;18.30;68.00
5520;DHT22;2782;52.362;10.012;2024-03-02T05:48:25;18.30;68.00
5520;DHT22;2782;52.362;10.012;2024-03-02T05:49:26;18.20;67.90
5520;DHT22;2782;52.362;10.012;2024-03-02T05:50:28;18.20;67.90
5520;DHT22;2782;52.362;10.012;2024-03-02T05:51:28;18.20;67.80
5520;DHT22;2782;52.362;10.012;2024-03-02T05:52:30;18.20;67.80
5520;DHT22;2782;52.362;10.012;2024-03-02T05:53:30;18.20;67.80
5520;DHT22;2782;52.362;10.012;2024-03-02T05:54:32;18.20;67.80
5520;DHT22;2782;52.362;10.012;2024-03-02T05:55:33;18.20;67.80
5520;DHT22;2782;52.362;10.012;2024-03-02T05:56:35;18.20;67.80
5520;DHT22;2782;52.362;10.012;2024-03-02T05:57:35;18.20;67.80
5520;DHT22;2782;52.362;10.012;2024-03-02T05:58:51;18.20;67.80
5520;DHT22;2782;52.362;10.012;2024-03-02T06:00:01;18.20;67.80
5520;DHT22;2782;52.362;10.012;2024-03-02T06:01:02;18.20;67.70
5520;DHT22;2782;52.362;10.012;2024-03-02T06:02:04;18.20;67.70
5520;DHT22;2782;52.362;10.012;2024-03-02T06:03:05;18.20;67.70
5520;DHT22;2782;52.362;10.012;2024-03-02T06:04:06;18.20;67.70
5520;DHT22;2782;52.362;10.012;2024-03-02T06:05:08;18.20;67.70
5520;DHT22;2782;52.362;10.012;2024-03-02T06:06:09;18.20;67.60
5520;DHT22;2782;52.362;10.012;2024-03-02T06:07:11;18.20;67.60
5520;DHT22;2782;52.362;10.012;2024-03-02T06:08:11;18.20;67.60
5520;DHT22;2782;52.362;10.012;2024-03-02T06:09:13;18.20;67.60
5520;DHT22;2782;52.362;10.012;2024-03-02T06:10:14;18.20;67.50
5520;DHT22;2782;52.362;10.012;2024-03-02T06:11:15;18.20;67.50
5520;DHT22;2782;52.362;10.012;2024-03-02T06:12:16;18.20;67.50
5520;DHT22;2782;52.362;10.012;2024-03-02T06:13:17;18.20;67.50
5520;DHT22;2782;52.362;10.012;2024-03-02T06:14:19;18.20;67.50
5520;DHT22;2782;52.362;10.012;2024-03-02T06:15:21;18.20;67.50
5520;DHT22;2782;52.362;10.012;2024-03-02T06:16:22;18.20;67.50
5520;DHT22;2782;52.362;10.012;2024-03-02T06:17:23;18.20;67.50
5520;DHT22;2782;52.362;10.012;2024-03-02T06:18:24;18.20;67.50
5520;DHT22;2782;52.362;10.012;2024-03-02T06:19:25;18.20;67.50
5520;DHT22;2782;52.362;10.012;2024-03-02T06:20:26;18.10;67.40
5520;DHT22;2782;52.362;10.012;2024-03-02T06:21:31;18.10;67.40
5520;DHT22;2782;52.362;10.012;2024-03-02T06:22:31;18.10;67.40
5520;DHT22;2782;52.362;10.012;2024-03-02T06:23:32;18.10;67.40
5520;DHT22;2782;52.362;10.012;2024-03-02T06:24:35;18.10;67.40
5520;DHT22;2782;52.362;10.012;2024-03-02T06:25:36;18.10;67.40
5520;DHT22;2782;52.362;10.012;2024-03-02T06:26:38;18.10;67.40
5520;DHT22;2782;52.362;10.012;2024-03-02T06:27:39;18.10;67.40
5520;DHT22;2782;52.362;10.012;2024-03-02T06:28:40;18.20;67.50
5520;DHT22;2782;52.362;10.012;2024-03-02T06:29:43;18.10;67.40
5520;DHT22;2782;52.362;10.012;2024-03-02T06:30:44;18.10;67.50
5520;DHT22;2782;52.362;10.012;2024-03-02T06:31:46;18.10;67.40
5520;DHT22;2782;52.362;10.012;2024-03-02T06:32:46;18.10;67.50
5520;DHT22;2782;52.362;10.012;2024-03-02T06:33:47;18.10;67.40
5520;DHT22;2782;52.362;10.012;2024-03-02T06:34:49;18.10;67.50
5520;DHT22;2782;52.362;10.012;2024-03-02T06:35:49;18.10;67.50
5520;DHT22;2782;52.362;10.012;2024-03-02T06:36:50;18.10;67.50
5520;DHT22;2782;52.362;10.012;2024-03-02T06:37:51;18.10;67.40
5520;DHT22;2782;52.362;10.012;2024-03-02T06:38:52;18.10;67.40
5520;DHT22;2782;52.362;10.012;2024-03-02T06:39:54;18.10;67.20